Time;durP1;ratioP1;P1;durP2;ratioP2;P2;SDS_P1;SDS_P2;PMS_P1;PMS_P2;Temp;Humidity;BMP_temperature;BMP_pressure;BME280_temperature;BME280_humidity;BME280_pressure;Samples;Min_cycle;Max_cycle;Signal;HPM_P1;HPM_P2
2024/01/07 00:01:27;;;;;;;;;;;0.50;99.90;;;;;;5104802;28;20264;-34
2024/01/07 00:03:54;;;;;;;;;;;0.50;99.90;;;;;;5079374;28;19928;-32
2024/01/07 00:06:21;;;;;;;;;;;0.50;99.90;;;;;;5075099;28;19947;-33
2024/01/07 00:08:48;;;;;;;;;;;0.50;99.90;;;;;;5080563;28;19924;-30
2024/01/07 00:11:15;;;;;;;;;;;0.50;99.90;;;;;;5076889;28;19928;-31
2024/01/07 00:13:42;;;;;;;;;;;0.60;99.90;;;;;;5098097;28;20290;-31
2024/01/07 00:16:08;;;;;;;;;;;0.50;99.90;;;;;;5077422;28;19974;-31
2024/01/07 00:18:36;;;;;;;;;;;0.50;99.90;;;;;;5094341;28;19969;-34
2024/01/07 00:21:03;;;;;;;;;;;0.50;99.90;;;;;;5074955;28;19928;-30
2024/01/07 00:23:29;;;;;;;;;;;0.50;99.90;;;;;;5073807;28;19924;-31
2024/01/07 00:25:56;;;;;;;;;;;0.50;99.90;;;;;;5081311;28;19993;-32
2024/01/07 00:28:23;;;;;;;;;;;0.50;99.90;;;;;;5102173;28;19971;-32
2024/01/07 00:30:49;;;;;;;;;;;0.50;99.90;;;;;;5112381;28;19928;-33
2024/01/07 00:33:16;;;;;;;;;;;0.50;99.90;;;;;;5103926;28;19924;-33
2024/01/07 00:35:44;;;;;;;;;;;0.50;99.90;;;;;;5105187;28;20480;-32
2024/01/07 00:38:11;;;;;;;;;;;0.50;99.90;;;;;;5078560;28;19924;-33
2024/01/07 00:40:38;;;;;;;;;;;0.50;99.90;;;;;;5078996;28;19924;-32
2024/01/07 00:43:04;;;;;;;;;;;0.50;99.90;;;;;;5095152;28;20337;-32
2024/01/07 00:45:31;;;;;;;;;;;0.50;99.90;;;;;;5087227;28;19977;-31
2024/01/07 00:47:58;;;;;;;;;;;0.50;99.90;;;;;;5080744;28;20041;-32
2024/01/07 00:50:24;;;;;;;;;;;0.50;99.90;;;;;;5092515;28;20347;-33
2024/01/07 00:52:52;;;;;;;;;;;0.60;99.90;;;;;;5088305;28;19924;-32
2024/01/07 00:55:19;;;;;;;;;;;0.50;99.90;;;;;;5097083;28;20006;-32
2024/01/07 00:57:46;;;;;;;;;;;0.50;99.90;;;;;;5077659;28;20440;-32
2024/01/07 01:00:13;;;;;;;;;;;0.50;99.90;;;;;;5083449;28;19924;-33
2024/01/07 01:02:40;;;;;;;;;;;0.50;99.90;;;;;;5083985;28;19924;-32
2024/01/07 01:05:07;;;;;;;;;;;0.50;99.90;;;;;;5079458;28;19924;-33
2024/01/07 01:07:33;;;;;;;;;;;0.50;99.90;;;;;;5078683;28;19928;-32
2024/01/07 01:10:01;;;;;;;;;;;0.50;99.90;;;;;;5113954;28;20221;-32
2024/01/07 01:12:28;;;;;;;;;;;0.50;99.90;;;;;;5082486;28;19924;-32
2024/01/07 01:14:54;;;;;;;;;;;0.50;99.90;;;;;;5077436;28;20295;-33
2024/01/07 01:17:21;;;;;;;;;;;0.50;99.90;;;;;;5083379;28;19924;-32
2024/01/07 01:19:48;;;;;;;;;;;0.50;99.90;;;;;;5097022;28;19924;-32
2024/01/07 01:22:14;;;;;;;;;;;0.50;99.90;;;;;;5083319;28;19924;-32
2024/01/07 01:24:42;;;;;;;;;;;0.50;99.90;;;;;;5098664;27;20372;-32
2024/01/07 01:27:10;;;;;;;;;;;0.50;99.90;;;;;;5086475;28;19938;-31
2024/01/07 01:29:37;;;;;;;;;;;0.60;99.90;;;;;;5079480;28;20252;-31
2024/01/07 01:32:04;;;;;;;;;;;0.50;99.90;;;;;;5076500;28;19924;-32
2024/01/07 01:34:30;;;;;;;;;;;0.50;99.90;;;;;;5094854;28;19924;-31
2024/01/07 01:36:57;;;;;;;;;;;0.50;99.90;;;;;;5076792;28;20369;-32
2024/01/07 01:39:24;;;;;;;;;;;0.50;99.90;;;;;;5100430;28;20316;-31
2024/01/07 01:41:50;;;;;;;;;;;0.50;99.90;;;;;;5102856;28;20003;-30
2024/01/07 01:44:18;;;;;;;;;;;0.50;99.90;;;;;;5081234;28;19924;-31
2024/01/07 01:46:45;;;;;;;;;;;0.50;99.90;;;;;;5083912;28;19954;-32
2024/01/07 01:49:12;;;;;;;;;;;0.50;99.90;;;;;;5099714;28;19928;-32
2024/01/07 01:51:38;;;;;;;;;;;0.50;99.90;;;;;;5092785;28;19975;-32
2024/01/07 01:54:05;;;;;;;;;;;0.50;99.90;;;;;;5079876;28;19924;-30
2024/01/07 01:56:32;;;;;;;;;;;0.50;99.90;;;;;;5090026;28;19987;-32
2024/01/07 01:58:58;;;;;;;;;;;0.50;99.90;;;;;;5077939;28;19986;-31
2024/01/07 02:01:26;;;;;;;;;;;0.50;99.90;;;;;;5083690;28;19977;-31
2024/01/07 02:03:54;;;;;;;;;;;0.50;99.90;;;;;;5096017;28;19936;-31
2024/01/07 02:06:20;;;;;;;;;;;0.50;99.90;;;;;;5079679;28;19968;-31
2024/01/07 02:08:48;;;;;;;;;;;0.50;99.90;;;;;;5092841;28;19969;-31
2024/01/07 02:11:15;;;;;;;;;;;0.50;99.90;;;;;;5094936;28;20010;-31
2024/01/07 02:13:42;;;;;;;;;;;0.50;99.90;;;;;;5092603;28;20399;-31
2024/01/07 02:16:09;;;;;;;;;;;0.50;99.90;;;;;;5091184;28;19923;-32
2024/01/07 02:18:37;;;;;;;;;;;0.60;99.90;;;;;;5112382;28;19928;-31
2024/01/07 02:21:03;;;;;;;;;;;0.50;99.90;;;;;;5091437;28;19932;-33
2024/01/07 02:23:30;;;;;;;;;;;0.50;99.90;;;;;;5083278;28;19924;-32
2024/01/07 02:25:58;;;;;;;;;;;0.50;99.90;;;;;;5111008;28;19930;-33
2024/01/07 02:28:25;;;;;;;;;;;0.50;99.90;;;;;;5101608;28;19924;-31
2024/01/07 02:30:51;;;;;;;;;;;0.50;99.90;;;;;;5085436;28;19924;-31
2024/01/07 02:33:18;;;;;;;;;;;0.50;99.90;;;;;;5075946;28;20033;-32
2024/01/07 02:35:45;;;;;;;;;;;0.50;99.90;;;;;;5076495;28;19963;-32
2024/01/07 02:38:11;;;;;;;;;;;0.50;99.90;;;;;;5076634;28;19932;-33
2024/01/07 02:40:38;;;;;;;;;;;0.40;99.90;;;;;;5115893;27;19989;-32
2024/01/07 02:43:06;;;;;;;;;;;0.50;99.90;;;;;;5094304;28;19950;-31
2024/01/07 02:45:32;;;;;;;;;;;0.40;99.90;;;;;;5106406;28;20371;-32
2024/01/07 02:47:59;;;;;;;;;;;0.40;99.90;;;;;;5074964;28;19985;-31
2024/01/07 02:50:26;;;;;;;;;;;0.40;99.90;;;;;;5087778;28;19982;-32
2024/01/07 02:52:52;;;;;;;;;;;0.50;99.90;;;;;;5083332;28;19928;-33
2024/01/07 02:55:19;;;;;;;;;;;0.40;99.90;;;;;;5074330;28;19928;-31
2024/01/07 02:57:46;;;;;;;;;;;0.40;99.90;;;;;;5074976;28;19984;-32
2024/01/07 03:00:14;;;;;;;;;;;0.40;99.90;;;;;;5075400;28;19924;-31
2024/01/07 03:02:41;;;;;;;;;;;0.40;99.90;;;;;;5106886;27;20432;-33
2024/01/07 03:05:08;;;;;;;;;;;0.40;99.90;;;;;;5096963;28;19969;-31
2024/01/07 03:07:34;;;;;;;;;;;0.40;99.90;;;;;;5116737;27;20037;-31
2024/01/07 03:10:01;;;;;;;;;;;0.40;99.90;;;;;;5109877;28;19924;-31
2024/01/07 03:12:28;;;;;;;;;;;0.40;99.90;;;;;;5082820;28;19924;-34
2024/01/07 03:14:54;;;;;;;;;;;0.50;99.90;;;;;;5095422;28;19958;-35
2024/01/07 03:17:23;;;;;;;;;;;0.50;99.90;;;;;;5083170;28;19963;-31
2024/01/07 03:19:50;;;;;;;;;;;0.40;99.90;;;;;;5081426;28;20007;-31
2024/01/07 03:22:17;;;;;;;;;;;0.40;99.90;;;;;;5090199;28;20366;-33
2024/01/07 03:24:43;;;;;;;;;;;0.40;99.90;;;;;;5107721;28;19924;-32
2024/01/07 03:27:10;;;;;;;;;;;0.40;99.90;;;;;;5074863;28;19924;-32
2024/01/07 03:29:37;;;;;;;;;;;0.30;99.90;;;;;;5074160;28;19973;-31
2024/01/07 03:32:03;;;;;;;;;;;0.40;99.90;;;;;;5075084;28;20375;-33
2024/01/07 03:34:31;;;;;;;;;;;0.30;99.90;;;;;;5093322;28;20463;-32
2024/01/07 03:36:58;;;;;;;;;;;0.30;99.90;;;;;;5093313;28;20367;-32
2024/01/07 03:39:25;;;;;;;;;;;0.30;99.90;;;;;;5103640;28;19934;-32
2024/01/07 03:41:55;;;;;;;;;;;0.30;99.90;;;;;;5094384;28;20697;-33
2024/01/07 03:44:21;;;;;;;;;;;0.30;99.90;;;;;;5078786;28;19924;-32
2024/01/07 03:46:48;;;;;;;;;;;0.30;99.90;;;;;;5078651;28;19971;-32
2024/01/07 03:49:15;;;;;;;;;;;0.30;99.90;;;;;;5093553;28;19928;-32
2024/01/07 03:51:43;;;;;;;;;;;0.30;99.90;;;;;;5087320;28;19928;-32
2024/01/07 03:54:10;;;;;;;;;;;0.30;99.90;;;;;;5074438;28;19924;-33
2024/01/07 03:56:36;;;;;;;;;;;0.30;99.90;;;;;;5092776;28;19923;-33
2024/01/07 03:59:03;;;;;;;;;;;0.30;99.90;;;;;;5106839;28;20336;-32
2024/01/07 04:01:29;;;;;;;;;;;0.30;99.90;;;;;;5098895;28;19961;-34
2024/01/07 04:03:56;;;;;;;;;;;0.30;99.90;;;;;;5086092;28;19931;-32
2024/01/07 04:06:23;;;;;;;;;;;0.30;99.90;;;;;;5102101;28;19963;-32
2024/01/07 04:08:51;;;;;;;;;;;0.30;99.90;;;;;;5111187;28;19932;-33
2024/01/07 04:11:17;;;;;;;;;;;0.30;99.90;;;;;;5096409;28;19985;-33
2024/01/07 04:13:44;;;;;;;;;;;0.30;99.90;;;;;;5079661;28;20364;-32
2024/01/07 04:16:16;;;;;;;;;;;0.30;99.90;;;;;;5078740;28;19997;-34
2024/01/07 04:18:43;;;;;;;;;;;0.30;99.90;;;;;;5093466;28;19973;-32
2024/01/07 04:21:10;;;;;;;;;;;0.30;99.90;;;;;;5096365;28;19927;-32
2024/01/07 04:23:36;;;;;;;;;;;0.30;99.90;;;;;;5091076;28;20252;-31
2024/01/07 04:26:04;;;;;;;;;;;0.20;99.90;;;;;;5105733;27;19925;-33
2024/01/07 04:28:31;;;;;;;;;;;0.20;99.90;;;;;;5078082;28;20350;-32
2024/01/07 04:30:58;;;;;;;;;;;0.20;99.90;;;;;;5077523;28;20375;-32
2024/01/07 04:33:24;;;;;;;;;;;0.20;99.90;;;;;;5081229;28;20396;-31
2024/01/07 04:35:51;;;;;;;;;;;0.10;99.90;;;;;;5089968;28;19971;-32
2024/01/07 04:38:17;;;;;;;;;;;0.20;99.90;;;;;;5078363;28;20330;-32
2024/01/07 04:40:44;;;;;;;;;;;0.20;99.90;;;;;;5078027;28;19924;-31
2024/01/07 04:43:12;;;;;;;;;;;0.10;99.90;;;;;;5082672;28;19924;-31
2024/01/07 04:45:39;;;;;;;;;;;0.10;99.90;;;;;;5084553;28;19932;-32
2024/01/07 04:48:06;;;;;;;;;;;0.10;99.90;;;;;;5086772;28;19928;-31
2024/01/07 04:50:32;;;;;;;;;;;0.10;99.90;;;;;;5093051;28;19923;-31
2024/01/07 04:52:59;;;;;;;;;;;0.10;99.90;;;;;;5079869;28;19969;-31
2024/01/07 04:55:26;;;;;;;;;;;0.10;99.90;;;;;;5083817;28;19981;-30
2024/01/07 04:57:52;;;;;;;;;;;0.10;99.90;;;;;;5079252;27;20280;-31
2024/01/07 05:00:20;;;;;;;;;;;0.10;99.90;;;;;;5106777;27;19925;-31
2024/01/07 05:02:47;;;;;;;;;;;0.10;99.90;;;;;;5082937;28;19989;-31
2024/01/07 05:05:14;;;;;;;;;;;0.00;99.90;;;;;;5077586;28;19928;-31
2024/01/07 05:07:40;;;;;;;;;;;0.00;99.90;;;;;;5084031;28;19952;-31
2024/01/07 05:10:08;;;;;;;;;;;0.00;99.90;;;;;;5104157;27;19924;-31
2024/01/07 05:12:34;;;;;;;;;;;0.00;99.90;;;;;;5076805;28;19924;-32
2024/01/07 05:15:01;;;;;;;;;;;0.10;99.90;;;;;;5101934;28;20329;-31
2024/01/07 05:17:29;;;;;;;;;;;0.10;99.90;;;;;;5124879;27;19928;-31
2024/01/07 05:19:55;;;;;;;;;;;0.10;99.90;;;;;;5100451;27;19924;-31
2024/01/07 05:22:22;;;;;;;;;;;0.10;99.90;;;;;;5094585;27;19928;-32
2024/01/07 05:24:49;;;;;;;;;;;0.00;99.90;;;;;;5100448;27;19923;-31
2024/01/07 05:27:15;;;;;;;;;;;0.10;99.90;;;;;;5093770;28;20280;-31
2024/01/07 05:29:45;;;;;;;;;;;0.00;99.90;;;;;;5095207;27;19924;-31
2024/01/07 05:32:11;;;;;;;;;;;0.00;99.90;;;;;;5126631;27;19924;-32
2024/01/07 05:34:39;;;;;;;;;;;0.00;99.90;;;;;;5098534;27;19924;-31
2024/01/07 05:37:09;;;;;;;;;;;0.00;99.90;;;;;;5099517;28;19981;-32
2024/01/07 05:39:36;;;;;;;;;;;0.00;99.90;;;;;;5099875;27;19924;-33
2024/01/07 05:42:02;;;;;;;;;;;0.00;99.90;;;;;;5100144;27;19993;-32
2024/01/07 05:44:29;;;;;;;;;;;0.00;99.90;;;;;;5095719;28;19932;-31
2024/01/07 05:46:55;;;;;;;;;;;0.00;99.90;;;;;;5104104;27;19955;-32
2024/01/07 05:49:22;;;;;;;;;;;0.00;99.90;;;;;;5105522;27;19976;-32
2024/01/07 05:51:50;;;;;;;;;;;0.00;99.90;;;;;;5092307;27;19924;-32
2024/01/07 05:54:17;;;;;;;;;;;0.00;99.90;;;;;;5107495;28;19988;-31
2024/01/07 05:56:43;;;;;;;;;;;0.00;99.90;;;;;;5102473;28;19989;-32
2024/01/07 05:59:10;;;;;;;;;;;0.00;99.90;;;;;;5095837;27;19928;-32
2024/01/07 06:01:37;;;;;;;;;;;0.00;99.90;;;;;;5107573;28;19996;-31
2024/01/07 06:04:03;;;;;;;;;;;0.00;99.90;;;;;;5108081;28;20015;-35
2024/01/07 06:06:30;;;;;;;;;;;0.00;99.90;;;;;;5107601;28;20203;-32
2024/01/07 06:08:58;;;;;;;;;;;0.00;99.90;;;;;;5097716;28;19985;-32
2024/01/07 06:11:25;;;;;;;;;;;0.00;99.90;;;;;;5092819;27;19973;-33
2024/01/07 06:13:51;;;;;;;;;;;0.00;99.90;;;;;;5133209;27;19997;-32
2024/01/07 06:16:18;;;;;;;;;;;0.00;99.90;;;;;;5098309;27;19977;-33
2024/01/07 06:18:44;;;;;;;;;;;0.00;99.90;;;;;;5104566;28;19924;-31
2024/01/07 06:21:11;;;;;;;;;;;0.10;99.90;;;;;;5107992;27;19924;-33
2024/01/07 06:23:38;;;;;;;;;;;0.10;99.90;;;;;;5098207;27;20355;-33
2024/01/07 06:26:06;;;;;;;;;;;0.10;99.90;;;;;;5105246;27;20394;-33
2024/01/07 06:28:32;;;;;;;;;;;0.00;99.90;;;;;;5105183;27;19956;-33
2024/01/07 06:30:59;;;;;;;;;;;0.00;99.90;;;;;;5092400;28;20383;-33
2024/01/07 06:33:26;;;;;;;;;;;0.00;99.90;;;;;;5111999;27;19931;-33
2024/01/07 06:35:52;;;;;;;;;;;0.00;99.90;;;;;;5090965;28;20012;-33
2024/01/07 06:38:19;;;;;;;;;;;0.00;99.90;;;;;;5086421;28;19923;-33
2024/01/07 06:40:45;;;;;;;;;;;0.00;99.90;;;;;;5081382;28;19924;-32
2024/01/07 06:43:13;;;;;;;;;;;0.00;99.90;;;;;;5098619;28;20333;-31
2024/01/07 06:45:40;;;;;;;;;;;0.00;99.90;;;;;;5096611;28;19976;-32
2024/01/07 06:48:07;;;;;;;;;;;0.00;99.90;;;;;;5084543;28;19928;-32
2024/01/07 06:50:34;;;;;;;;;;;-0.10;99.90;;;;;;5084028;28;19924;-32
2024/01/07 06:53:01;;;;;;;;;;;-0.10;99.90;;;;;;5089641;28;19924;-33
2024/01/07 06:55:27;;;;;;;;;;;-0.10;99.90;;;;;;5093275;28;20360;-32
2024/01/07 06:57:54;;;;;;;;;;;-0.10;99.90;;;;;;5089645;28;20367;-32
2024/01/07 07:00:23;;;;;;;;;;;0.00;99.90;;;;;;5103653;28;19924;-33
2024/01/07 07:02:49;;;;;;;;;;;0.00;99.90;;;;;;5077261;28;20287;-32
2024/01/07 07:05:16;;;;;;;;;;;-0.10;99.90;;;;;;5090317;28;20022;-32
2024/01/07 07:07:43;;;;;;;;;;;-0.10;99.90;;;;;;5086172;28;19973;-32
2024/01/07 07:10:09;;;;;;;;;;;0.00;99.90;;;;;;5102367;28;20356;-33
2024/01/07 07:12:36;;;;;;;;;;;0.00;99.90;;;;;;5091764;28;19932;-32
2024/01/07 07:15:03;;;;;;;;;;;0.00;99.90;;;;;;5078727;28;19972;-33
2024/01/07 07:17:31;;;;;;;;;;;-0.10;99.90;;;;;;5093591;28;19984;-34
2024/01/07 07:19:57;;;;;;;;;;;0.00;99.90;;;;;;5087519;28;19977;-32
2024/01/07 07:22:24;;;;;;;;;;;0.00;99.90;;;;;;5090477;28;19924;-33
2024/01/07 07:24:51;;;;;;;;;;;-0.10;99.90;;;;;;5093652;28;19928;-32
2024/01/07 07:27:17;;;;;;;;;;;0.00;99.90;;;;;;5130526;27;19931;-33
2024/01/07 07:29:44;;;;;;;;;;;0.00;99.90;;;;;;5109765;28;19927;-34
2024/01/07 07:32:11;;;;;;;;;;;0.00;99.90;;;;;;5095063;28;19924;-32
2024/01/07 07:34:38;;;;;;;;;;;0.00;99.90;;;;;;5091376;28;19924;-33
2024/01/07 07:37:05;;;;;;;;;;;0.00;99.90;;;;;;5105123;28;19923;-32
2024/01/07 07:39:32;;;;;;;;;;;0.00;99.90;;;;;;5106571;28;19967;-32
2024/01/07 07:41:58;;;;;;;;;;;0.00;99.90;;;;;;5106756;27;20336;-32
2024/01/07 07:44:26;;;;;;;;;;;0.00;99.90;;;;;;5112240;27;19969;-32
2024/01/07 07:46:52;;;;;;;;;;;0.00;99.90;;;;;;5114973;28;19928;-32
2024/01/07 07:49:19;;;;;;;;;;;0.00;99.90;;;;;;5109060;28;19924;-32
2024/01/07 07:51:47;;;;;;;;;;;0.00;99.90;;;;;;5109109;27;20039;-33
2024/01/07 07:54:13;;;;;;;;;;;-0.10;99.90;;;;;;5111918;28;20349;-32
2024/01/07 07:56:40;;;;;;;;;;;0.00;99.90;;;;;;5097365;28;20371;-33
2024/01/07 07:59:08;;;;;;;;;;;0.00;99.90;;;;;;5103362;28;19924;-32
2024/01/07 08:01:35;;;;;;;;;;;0.00;99.90;;;;;;5097369;28;19924;-33
2024/01/07 08:04:02;;;;;;;;;;;-0.10;99.90;;;;;;5102280;27;19967;-32
2024/01/07 08:06:29;;;;;;;;;;;-0.10;99.90;;;;;;5096787;27;19981;-33
2024/01/07 08:08:57;;;;;;;;;;;-0.10;99.90;;;;;;5095586;28;20025;-32
2024/01/07 08:11:24;;;;;;;;;;;-0.10;99.90;;;;;;5107176;28;20016;-33
2024/01/07 08:13:51;;;;;;;;;;;-0.10;99.90;;;;;;5138462;27;20031;-32
2024/01/07 08:16:18;;;;;;;;;;;-0.10;99.90;;;;;;5110454;28;19981;-31
2024/01/07 08:18:45;;;;;;;;;;;-0.20;99.90;;;;;;5102177;28;19923;-32
2024/01/07 08:21:12;;;;;;;;;;;-0.20;99.90;;;;;;5101383;27;20011;-33
2024/01/07 08:23:38;;;;;;;;;;;-0.20;99.90;;;;;;5108061;28;19924;-32
2024/01/07 08:26:06;;;;;;;;;;;-0.30;99.90;;;;;;5081053;28;19982;-31
2024/01/07 08:28:33;;;;;;;;;;;-0.30;99.90;;;;;;5085791;28;19923;-33
2024/01/07 08:31:00;;;;;;;;;;;-0.30;99.90;;;;;;5090949;27;19924;-32
2024/01/07 08:33:28;;;;;;;;;;;-0.30;99.90;;;;;;5090889;28;19927;-32
2024/01/07 08:35:55;;;;;;;;;;;-0.30;99.90;;;;;;5080097;28;19986;-33
2024/01/07 08:38:21;;;;;;;;;;;-0.40;99.90;;;;;;5110253;27;20344;-32
2024/01/07 08:40:48;;;;;;;;;;;-0.40;99.90;;;;;;5086200;28;19928;-33
2024/01/07 08:43:16;;;;;;;;;;;-0.40;99.90;;;;;;5097510;27;19924;-32
2024/01/07 08:45:43;;;;;;;;;;;-0.40;99.90;;;;;;5080958;28;19924;-33
2024/01/07 08:48:10;;;;;;;;;;;-0.40;99.90;;;;;;5109939;28;19968;-32
2024/01/07 08:50:37;;;;;;;;;;;-0.40;99.90;;;;;;5082279;28;19924;-32
2024/01/07 08:53:03;;;;;;;;;;;-0.40;99.90;;;;;;5110189;28;19931;-33
2024/01/07 08:55:30;;;;;;;;;;;-0.50;99.90;;;;;;5101700;28;20329;-32
2024/01/07 08:57:57;;;;;;;;;;;-0.40;99.90;;;;;;5081565;28;20367;-32
2024/01/07 09:00:26;;;;;;;;;;;-0.40;99.90;;;;;;5106377;28;19924;-32
2024/01/07 09:02:53;;;;;;;;;;;-0.50;99.90;;;;;;5095483;28;19924;-33
2024/01/07 09:05:20;;;;;;;;;;;-0.50;99.90;;;;;;5102641;27;20272;-32
2024/01/07 09:07:46;;;;;;;;;;;-0.40;99.90;;;;;;5091137;28;19950;-33
2024/01/07 09:10:13;;;;;;;;;;;-0.40;99.90;;;;;;5113918;28;19924;-32
2024/01/07 09:12:40;;;;;;;;;;;-0.40;99.90;;;;;;5115132;28;20374;-32
2024/01/07 09:15:07;;;;;;;;;;;-0.40;99.90;;;;;;5109115;27;20375;-32
2024/01/07 09:17:37;;;;;;;;;;;-0.40;99.90;;;;;;5110062;28;19924;-32
2024/01/07 09:20:07;;;;;;;;;;;-0.40;99.90;;;;;;5109125;28;19977;-31
2024/01/07 09:22:33;;;;;;;;;;;-0.30;99.90;;;;;;5107443;28;19993;-32
2024/01/07 09:25:00;;;;;;;;;;;-0.20;99.90;;;;;;5105459;28;20015;-32
2024/01/07 09:27:27;;;;;;;;;;;-0.20;99.90;;;;;;5093757;27;19971;-32
2024/01/07 09:29:53;;;;;;;;;;;-0.20;99.90;;;;;;5127394;27;20275;-32
2024/01/07 09:32:20;;;;;;;;;;;-0.10;99.90;;;;;;5127254;27;19959;-32
2024/01/07 09:34:48;;;;;;;;;;;-0.10;99.90;;;;;;5109934;27;19928;-31
2024/01/07 09:37:14;;;;;;;;;;;0.00;99.90;;;;;;5111254;28;19927;-32
2024/01/07 09:39:41;;;;;;;;;;;0.00;99.90;;;;;;5101896;27;20363;-32
2024/01/07 09:42:08;;;;;;;;;;;0.00;99.90;;;;;;5094935;28;19924;-32
2024/01/07 09:44:35;;;;;;;;;;;0.10;99.90;;;;;;5100165;28;19959;-33
2024/01/07 09:47:03;;;;;;;;;;;0.20;99.90;;;;;;5104960;28;19975;-32
2024/01/07 09:49:29;;;;;;;;;;;0.20;99.90;;;;;;5108141;28;19924;-33
2024/01/07 09:51:59;;;;;;;;;;;0.30;99.90;;;;;;5111027;27;19927;-32
2024/01/07 09:54:26;;;;;;;;;;;0.30;99.90;;;;;;5110445;28;19924;-33
2024/01/07 09:56:55;;;;;;;;;;;0.40;99.90;;;;;;5109847;27;20008;-33
2024/01/07 09:59:22;;;;;;;;;;;0.50;99.90;;;;;;5111706;28;19976;-32
2024/01/07 10:01:48;;;;;;;;;;;0.50;99.90;;;;;;5104029;28;19975;-31
2024/01/07 10:04:15;;;;;;;;;;;0.60;99.90;;;;;;5093907;28;20001;-32
2024/01/07 10:06:42;;;;;;;;;;;0.60;99.90;;;;;;5114015;28;19924;-34
2024/01/07 10:09:10;;;;;;;;;;;0.70;99.90;;;;;;5112206;28;19973;-32
2024/01/07 10:11:36;;;;;;;;;;;0.70;99.90;;;;;;5100573;28;20286;-32
2024/01/07 10:14:03;;;;;;;;;;;0.80;99.90;;;;;;5101761;28;19924;-33
2024/01/07 10:16:31;;;;;;;;;;;1.00;99.90;;;;;;5092297;28;19928;-34
2024/01/07 10:18:58;;;;;;;;;;;1.10;99.90;;;;;;5101209;28;20187;-33
2024/01/07 10:21:25;;;;;;;;;;;1.10;99.90;;;;;;5108776;28;19924;-32
2024/01/07 10:23:53;;;;;;;;;;;1.10;99.90;;;;;;5106440;28;19932;-32
2024/01/07 10:26:21;;;;;;;;;;;1.00;99.90;;;;;;5142899;27;19927;-32
2024/01/07 10:28:47;;;;;;;;;;;0.90;99.90;;;;;;5144196;27;19959;-31
2024/01/07 10:31:14;;;;;;;;;;;0.90;99.90;;;;;;5111184;28;19924;-33
2024/01/07 10:33:41;;;;;;;;;;;0.80;99.90;;;;;;5111031;28;19953;-33
2024/01/07 10:36:07;;;;;;;;;;;0.80;99.90;;;;;;5105027;27;19923;-32
2024/01/07 10:38:34;;;;;;;;;;;0.70;99.90;;;;;;5102739;27;19975;-32
2024/01/07 10:41:01;;;;;;;;;;;0.70;99.90;;;;;;5106396;27;19923;-32
2024/01/07 10:43:29;;;;;;;;;;;0.70;99.90;;;;;;5110849;28;19950;-33
2024/01/07 10:45:56;;;;;;;;;;;0.70;99.90;;;;;;5101308;28;19924;-35
2024/01/07 10:48:23;;;;;;;;;;;0.70;99.90;;;;;;5096971;28;19932;-32
2024/01/07 10:50:50;;;;;;;;;;;0.70;99.90;;;;;;5102725;28;19927;-33
2024/01/07 10:53:19;;;;;;;;;;;0.70;99.90;;;;;;5106240;28;19924;-33
2024/01/07 10:55:47;;;;;;;;;;;0.70;99.90;;;;;;5095875;28;20298;-34
2024/01/07 10:58:13;;;;;;;;;;;0.70;99.90;;;;;;5099692;28;19924;-33
2024/01/07 11:00:43;;;;;;;;;;;0.70;99.90;;;;;;5106951;27;20394;-33
2024/01/07 11:03:10;;;;;;;;;;;0.80;99.90;;;;;;5101870;27;19928;-34
2024/01/07 11:05:38;;;;;;;;;;;0.80;99.90;;;;;;5098988;28;19974;-33
2024/01/07 11:08:06;;;;;;;;;;;0.80;99.90;;;;;;5102363;28;19993;-33
2024/01/07 11:10:34;;;;;;;;;;;0.80;99.90;;;;;;5101722;28;20408;-32
2024/01/07 11:13:00;;;;;;;;;;;0.80;99.90;;;;;;5098660;27;19924;-32
2024/01/07 11:15:46;;;;;;;;;;;0.80;99.90;;;;;;5102402;28;20401;-33
2024/01/07 11:18:19;;;;;;;;;;;0.80;99.90;;;;;;5099272;28;19988;-32
2024/01/07 11:20:45;;;;;;;;;;;0.80;99.90;;;;;;5099722;28;20355;-32
2024/01/07 11:23:28;;;;;;;;;;;0.80;99.90;;;;;;5124364;27;20428;-32
2024/01/07 11:25:56;;;;;;;;;;;0.80;99.90;;;;;;5102014;28;20026;-32
2024/01/07 11:28:43;;;;;;;;;;;0.80;99.90;;;;;;5103549;28;20311;-32
2024/01/07 11:31:10;;;;;;;;;;;0.80;99.90;;;;;;5092358;28;20368;-31
2024/01/07 11:33:38;;;;;;;;;;;1.00;99.90;;;;;;5091286;28;19924;-31
2024/01/07 11:36:05;;;;;;;;;;;1.10;99.90;;;;;;5093931;28;20036;-32
2024/01/07 11:38:32;;;;;;;;;;;1.20;99.90;;;;;;5100621;28;19981;-33
2024/01/07 11:40:59;;;;;;;;;;;1.20;99.90;;;;;;5102073;28;20447;-31
2024/01/07 11:43:26;;;;;;;;;;;1.30;99.90;;;;;;5097116;28;20370;-32
2024/01/07 11:45:54;;;;;;;;;;;1.30;99.90;;;;;;5094111;28;19997;-34
2024/01/07 11:48:21;;;;;;;;;;;1.40;99.90;;;;;;5102143;28;19939;-33
2024/01/07 11:50:49;;;;;;;;;;;1.40;99.90;;;;;;5099958;28;19924;-31
2024/01/07 11:53:15;;;;;;;;;;;1.50;99.90;;;;;;5101614;28;20402;-32
2024/01/07 11:55:42;;;;;;;;;;;1.50;99.90;;;;;;5104267;28;19928;-32
2024/01/07 11:58:09;;;;;;;;;;;1.50;99.90;;;;;;5100911;28;19969;-32
2024/01/07 12:00:36;;;;;;;;;;;1.60;99.90;;;;;;5106293;28;19932;-32
2024/01/07 12:03:03;;;;;;;;;;;1.60;99.90;;;;;;5106090;28;19923;-33
2024/01/07 12:05:29;;;;;;;;;;;1.70;99.90;;;;;;5101140;28;19928;-32
2024/01/07 12:07:57;;;;;;;;;;;1.70;99.90;;;;;;5102395;28;20298;-31
2024/01/07 12:10:24;;;;;;;;;;;1.80;99.90;;;;;;5098918;28;20298;-32
2024/01/07 12:12:51;;;;;;;;;;;1.80;99.90;;;;;;5138583;27;20005;-32
2024/01/07 12:15:18;;;;;;;;;;;1.90;99.90;;;;;;5102678;28;19930;-31
2024/01/07 12:17:49;;;;;;;;;;;1.90;99.90;;;;;;5095233;28;19931;-32
2024/01/07 12:20:16;;;;;;;;;;;1.90;99.90;;;;;;5107730;28;19981;-32
2024/01/07 12:22:42;;;;;;;;;;;1.90;99.90;;;;;;5103895;28;19928;-32
2024/01/07 12:25:11;;;;;;;;;;;1.90;99.90;;;;;;5102773;28;20348;-33
2024/01/07 12:27:37;;;;;;;;;;;1.90;99.90;;;;;;5111727;28;19928;-32
2024/01/07 12:30:05;;;;;;;;;;;1.90;99.90;;;;;;5097043;28;19924;-33
2024/01/07 12:32:31;;;;;;;;;;;2.00;99.90;;;;;;5094525;28;20031;-32
2024/01/07 12:34:59;;;;;;;;;;;2.00;99.90;;;;;;5103036;27;20103;-31
2024/01/07 12:37:26;;;;;;;;;;;2.00;99.90;;;;;;5111606;28;19931;-34
2024/01/07 12:39:53;;;;;;;;;;;2.10;99.90;;;;;;5106391;28;19969;-33
2024/01/07 12:42:23;;;;;;;;;;;2.00;99.90;;;;;;5111476;27;20352;-33
2024/01/07 12:44:49;;;;;;;;;;;2.00;99.90;;;;;;5101699;27;19976;-32
2024/01/07 12:47:16;;;;;;;;;;;2.00;99.90;;;;;;5113882;28;20329;-31
2024/01/07 12:49:43;;;;;;;;;;;2.00;99.90;;;;;;5109082;28;19924;-32
2024/01/07 12:52:10;;;;;;;;;;;2.00;99.90;;;;;;5127927;27;20371;-32
2024/01/07 12:54:38;;;;;;;;;;;1.90;99.90;;;;;;5109871;28;19980;-32
2024/01/07 12:57:05;;;;;;;;;;;2.10;99.90;;;;;;5132761;27;19985;-33
2024/01/07 12:59:33;;;;;;;;;;;2.00;99.90;;;;;;5093934;28;19932;-32
2024/01/07 13:01:59;;;;;;;;;;;2.00;99.90;;;;;;5102172;28;19928;-32
2024/01/07 13:04:26;;;;;;;;;;;1.90;99.90;;;;;;5113557;28;19930;-32
2024/01/07 13:06:53;;;;;;;;;;;2.00;99.90;;;;;;5094217;28;19977;-33
2024/01/07 13:09:19;;;;;;;;;;;2.00;99.90;;;;;;5109508;28;19923;-32
2024/01/07 13:11:46;;;;;;;;;;;2.00;99.90;;;;;;5102197;28;19936;-32
2024/01/07 13:14:13;;;;;;;;;;;2.00;99.90;;;;;;5095845;28;19959;-33
2024/01/07 13:16:41;;;;;;;;;;;2.00;99.90;;;;;;5113291;28;19969;-32
2024/01/07 13:19:10;;;;;;;;;;;2.00;99.90;;;;;;5114024;28;19976;-33
2024/01/07 13:21:37;;;;;;;;;;;2.00;99.90;;;;;;5112229;27;19924;-32
2024/01/07 13:24:04;;;;;;;;;;;2.00;99.90;;;;;;5101644;28;20339;-32
2024/01/07 13:26:31;;;;;;;;;;;1.80;99.90;;;;;;5084414;28;19928;-33
2024/01/07 13:28:58;;;;;;;;;;;1.70;99.90;;;;;;5095028;28;19981;-32
2024/01/07 13:31:24;;;;;;;;;;;1.60;99.90;;;;;;5114706;28;19969;-32
2024/01/07 13:33:52;;;;;;;;;;;1.50;99.90;;;;;;5077631;28;20397;-32
2024/01/07 13:36:19;;;;;;;;;;;1.50;99.90;;;;;;5096914;28;20292;-32
2024/01/07 13:38:49;;;;;;;;;;;1.40;99.90;;;;;;5076411;28;19970;-35
2024/01/07 13:41:16;;;;;;;;;;;1.30;99.90;;;;;;5092627;28;19960;-33
2024/01/07 13:43:43;;;;;;;;;;;1.40;99.90;;;;;;5082706;28;19978;-32
2024/01/07 13:46:10;;;;;;;;;;;1.40;99.90;;;;;;5111772;28;19929;-32
2024/01/07 13:48:39;;;;;;;;;;;1.40;99.90;;;;;;5112736;28;19976;-32
2024/01/07 13:51:07;;;;;;;;;;;1.40;99.90;;;;;;5107128;28;19924;-33
2024/01/07 13:53:34;;;;;;;;;;;1.40;99.90;;;;;;5105442;28;19971;-32
2024/01/07 13:56:01;;;;;;;;;;;1.40;99.90;;;;;;5077054;28;20014;-33
2024/01/07 13:58:28;;;;;;;;;;;1.40;99.90;;;;;;5082120;28;19932;-32
2024/01/07 14:00:54;;;;;;;;;;;1.30;99.90;;;;;;5081421;28;20018;-33
2024/01/07 14:03:21;;;;;;;;;;;1.30;99.90;;;;;;5092378;27;19937;-32
2024/01/07 14:05:48;;;;;;;;;;;1.30;99.90;;;;;;5100909;28;19969;-32
2024/01/07 14:08:16;;;;;;;;;;;1.30;99.90;;;;;;5083579;28;20389;-33
2024/01/07 14:10:42;;;;;;;;;;;1.20;99.90;;;;;;5090335;28;19996;-34
2024/01/07 14:13:09;;;;;;;;;;;1.20;99.90;;;;;;5088210;28;19977;-32
2024/01/07 14:15:36;;;;;;;;;;;1.20;99.90;;;;;;5102736;28;19934;-32
2024/01/07 14:18:03;;;;;;;;;;;1.20;99.90;;;;;;5075182;28;19924;-32
2024/01/07 14:20:29;;;;;;;;;;;1.20;99.90;;;;;;5124737;27;19924;-32
2024/01/07 14:22:56;;;;;;;;;;;1.20;99.90;;;;;;5113688;28;19924;-32
2024/01/07 14:25:24;;;;;;;;;;;1.20;99.90;;;;;;5096481;28;19924;-32
2024/01/07 14:27:51;;;;;;;;;;;1.20;99.90;;;;;;5097897;27;19977;-33